sensor_id;sensor_type;location;lat;lon;timestamp;temperature;humidity
42421;DHT22;28063;48.140;11.588;2023-03-04T00:00:24;2.10;99.90
42421;DHT22;28063;48.140;11.588;2023-03-04T00:02:50;2.10;99.90
42421;DHT22;28063;48.140;11.588;2023-03-04T00:05:15;2.10;99.90
42421;DHT22;28063;48.140;11.588;2023-03-04T00:07:41;2.00;99.90
42421;DHT22;28063;48.140;11.588;2023-03-04T00:10:07;2.00;99.90
42421;DHT22;28063;48.140;11.588;2023-03-04T00:12:33;2.00;99.90
42421;DHT22;28063;48.140;11.588;2023-03-04T00:14:58;2.00;99.90
42421;DHT22;28063;48.140;11.588;2023-03-04T00:17:24;2.00;99.90
42421;DHT22;28063;48.140;11.588;2023-03-04T00:19:50;1.90;99.90
42421;DHT22;28063;48.140;11.588;2023-03-04T00:22:15;1.90;99.90
42421;DHT22;28063;48.140;11.588;2023-03-04T00:24:41;1.90;99.90
42421;DHT22;28063;48.140;11.588;2023-03-04T00:27:06;1.90;99.90
42421;DHT22;28063;48.140;11.588;2023-03-04T00:29:32;1.80;99.90
42421;DHT22;28063;48.140;11.588;2023-03-04T00:31:58;1.80;99.90
42421;DHT22;28063;48.140;11.588;2023-03-04T00:34:23;1.80;99.90
42421;DHT22;28063;48.140;11.588;2023-03-04T00:36:49;1.80;99.90
42421;DHT22;28063;48.140;11.588;2023-03-04T00:39:15;1.70;99.90
42421;DHT22;28063;48.140;11.588;2023-03-04T00:41:41;1.70;99.90
42421;DHT22;28063;48.140;11.588;2023-03-04T00:44:06;1.70;99.90
42421;DHT22;28063;48.140;11.588;2023-03-04T00:46:32;1.70;99.90
42421;DHT22;28063;48.140;11.588;2023-03-04T00:48:58;1.70;99.90
42421;DHT22;28063;48.140;11.588;2023-03-04T00:51:23;1.70;99.90
42421;DHT22;28063;48.140;11.588;2023-03-04T00:53:49;1.70;99.90
42421;DHT22;28063;48.140;11.588;2023-03-04T00:56:16;1.70;99.90
42421;DHT22;28063;48.140;11.588;2023-03-04T00:58:42;1.70;99.90
42421;DHT22;28063;48.140;11.588;2023-03-04T01:01:08;1.70;99.90
42421;DHT22;28063;48.140;11.588;2023-03-04T01:03:34;1.70;99.90
42421;DHT22;28063;48.140;11.588;2023-03-04T01:05:59;1.70;99.90
42421;DHT22;28063;48.140;11.588;2023-03-04T01:08:25;1.70;99.90
42421;DHT22;28063;48.140;11.588;2023-03-04T01:10:51;1.70;99.90
42421;DHT22;28063;48.140;11.588;2023-03-04T01:13:17;1.70;99.90
42421;DHT22;28063;48.140;11.588;2023-03-04T01:15:43;1.70;99.90
42421;DHT22;28063;48.140;11.588;2023-03-04T01:18:08;1.70;99.90
42421;DHT22;28063;48.140;11.588;2023-03-04T01:20:34;1.80;99.90
42421;DHT22;28063;48.140;11.588;2023-03-04T01:23:00;1.70;99.90
42421;DHT22;28063;48.140;11.588;2023-03-04T01:25:25;1.70;99.90
42421;DHT22;28063;48.140;11.588;2023-03-04T01:27:51;1.70;99.90
42421;DHT22;28063;48.140;11.588;2023-03-04T01:30:17;1.70;99.90
42421;DHT22;28063;48.140;11.588;2023-03-04T01:32:42;1.60;99.90
42421;DHT22;28063;48.140;11.588;2023-03-04T01:35:08;1.60;99.90
42421;DHT22;28063;48.140;11.588;2023-03-04T01:37:34;1.60;99.90
42421;DHT22;28063;48.140;11.588;2023-03-04T01:40:00;1.60;99.90
42421;DHT22;28063;48.140;11.588;2023-03-04T01:42:28;1.60;99.90
42421;DHT22;28063;48.140;11.588;2023-03-04T01:44:54;1.50;99.90
42421;DHT22;28063;48.140;11.588;2023-03-04T01:47:21;1.50;99.90
42421;DHT22;28063;48.140;11.588;2023-03-04T01:49:53;1.50;99.90
42421;DHT22;28063;48.140;11.588;2023-03-04T01:52:19;1.40;99.90
42421;DHT22;28063;48.140;11.588;2023-03-04T01:54:45;1.40;99.90
42421;DHT22;28063;48.140;11.588;2023-03-04T01:57:40;1.40;99.90
42421;DHT22;28063;48.140;11.588;2023-03-04T02:02:43;1.40;99.90
42421;DHT22;28063;48.140;11.588;2023-03-04T02:05:09;1.40;99.90
42421;DHT22;28063;48.140;11.588;2023-03-04T02:07:59;1.40;99.90
42421;DHT22;28063;48.140;11.588;2023-03-04T02:10:28;1.40;99.90
42421;DHT22;28063;48.140;11.588;2023-03-04T02:12:54;1.40;99.90
42421;DHT22;28063;48.140;11.588;2023-03-04T02:15:20;1.40;99.90
42421;DHT22;28063;48.140;11.588;2023-03-04T02:17:49;1.30;99.90
42421;DHT22;28063;48.140;11.588;2023-03-04T02:26:28;1.30;99.90
42421;DHT22;28063;48.140;11.588;2023-03-04T02:28:33;1.30;99.90
42421;DHT22;28063;48.140;11.588;2023-03-04T02:30:58;1.30;99.90
42421;DHT22;28063;48.140;11.588;2023-03-04T02:33:24;1.30;99.90
42421;DHT22;28063;48.140;11.588;2023-03-04T02:35:50;1.30;99.90
42421;DHT22;28063;48.140;11.588;2023-03-04T02:38:15;1.20;99.90
42421;DHT22;28063;48.140;11.588;2023-03-04T02:40:44;1.20;99.90
42421;DHT22;28063;48.140;11.588;2023-03-04T02:43:34;1.20;99.90
42421;DHT22;28063;48.140;11.588;2023-03-04T02:46:00;1.20;99.90
42421;DHT22;28063;48.140;11.588;2023-03-04T02:48:25;1.20;99.90
42421;DHT22;28063;48.140;11.588;2023-03-04T02:50:52;1.20;99.90
42421;DHT22;28063;48.140;11.588;2023-03-04T02:53:19;1.20;99.90
42421;DHT22;28063;48.140;11.588;2023-03-04T02:55:45;1.20;99.90
42421;DHT22;28063;48.140;11.588;2023-03-04T02:58:11;1.20;99.90
42421;DHT22;28063;48.140;11.588;2023-03-04T03:00:38;1.30;99.90
42421;DHT22;28063;48.140;11.588;2023-03-04T03:03:04;1.30;99.90
42421;DHT22;28063;48.140;11.588;2023-03-04T03:05:31;1.30;99.90
42421;DHT22;28063;48.140;11.588;2023-03-04T03:07:57;1.30;99.90
42421;DHT22;28063;48.140;11.588;2023-03-04T03:10:23;1.40;99.90
42421;DHT22;28063;48.140;11.588;2023-03-04T03:12:50;1.40;99.90
42421;DHT22;28063;48.140;11.588;2023-03-04T03:15:16;1.40;99.90
42421;DHT22;28063;48.140;11.588;2023-03-04T03:17:42;1.40;99.90
42421;DHT22;28063;48.140;11.588;2023-03-04T03:20:09;1.40;99.90
42421;DHT22;28063;48.140;11.588;2023-03-04T03:22:35;1.40;99.90
42421;DHT22;28063;48.140;11.588;2023-03-04T03:25:01;1.40;99.90
42421;DHT22;28063;48.140;11.588;2023-03-04T03:27:26;1.40;99.90
42421;DHT22;28063;48.140;11.588;2023-03-04T03:29:52;1.40;99.90
42421;DHT22;28063;48.140;11.588;2023-03-04T03:32:18;1.40;99.90
42421;DHT22;28063;48.140;11.588;2023-03-04T03:34:43;1.40;99.90
42421;DHT22;28063;48.140;11.588;2023-03-04T03:37:09;1.40;99.90
42421;DHT22;28063;48.140;11.588;2023-03-04T03:39:35;1.40;99.90
42421;DHT22;28063;48.140;11.588;2023-03-04T03:42:01;1.40;99.90
42421;DHT22;28063;48.140;11.588;2023-03-04T03:44:26;1.40;99.90
42421;DHT22;28063;48.140;11.588;2023-03-04T03:46:52;1.40;99.90
42421;DHT22;28063;48.140;11.588;2023-03-04T03:49:17;1.40;99.90
42421;DHT22;28063;48.140;11.588;2023-03-04T03:51:43;1.40;99.90
42421;DHT22;28063;48.140;11.588;2023-03-04T03:54:09;1.40;99.90
42421;DHT22;28063;48.140;11.588;2023-03-04T03:56:35;1.30;99.90
42421;DHT22;28063;48.140;11.588;2023-03-04T03:59:00;1.30;99.90
42421;DHT22;28063;48.140;11.588;2023-03-04T04:01:26;1.20;99.90
42421;DHT22;28063;48.140;11.588;2023-03-04T04:03:51;1.20;99.90
42421;DHT22;28063;48.140;11.588;2023-03-04T04:06:17;1.20;99.90
42421;DHT22;28063;48.140;11.588;2023-03-04T04:08:43;1.20;99.90
42421;DHT22;28063;48.140;11.588;2023-03-04T04:11:11;1.20;99.90
42421;DHT22;28063;48.140;11.588;2023-03-04T04:13:37;1.10;99.90
42421;DHT22;28063;48.140;11.588;2023-03-04T04:16:03;1.10;99.90
42421;DHT22;28063;48.140;11.588;2023-03-04T04:18:29;1.10;99.90
42421;DHT22;28063;48.140;11.588;2023-03-04T04:20:55;1.10;99.90
42421;DHT22;28063;48.140;11.588;2023-03-04T04:23:21;1.00;99.90
42421;DHT22;28063;48.140;11.588;2023-03-04T04:25:46;1.00;99.90
42421;DHT22;28063;48.140;11.588;2023-03-04T04:28:12;1.00;99.90
42421;DHT22;28063;48.140;11.588;2023-03-04T04:30:38;1.00;99.90
42421;DHT22;28063;48.140;11.588;2023-03-04T04:33:04;1.00;99.90
42421;DHT22;28063;48.140;11.588;2023-03-04T04:35:31;1.00;99.90
42421;DHT22;28063;48.140;11.588;2023-03-04T04:37:57;1.00;99.90
42421;DHT22;28063;48.140;11.588;2023-03-04T04:40:23;1.00;99.90
42421;DHT22;28063;48.140;11.588;2023-03-04T04:42:49;0.90;99.90
42421;DHT22;28063;48.140;11.588;2023-03-04T04:45:14;1.00;99.90
42421;DHT22;28063;48.140;11.588;2023-03-04T04:47:40;0.90;99.90
42421;DHT22;28063;48.140;11.588;2023-03-04T04:50:06;1.00;99.90
42421;DHT22;28063;48.140;11.588;2023-03-04T04:52:32;0.90;99.90
42421;DHT22;28063;48.140;11.588;2023-03-04T04:54:57;0.90;99.90
42421;DHT22;28063;48.140;11.588;2023-03-04T04:57:23;0.90;99.90
42421;DHT22;28063;48.140;11.588;2023-03-04T04:59:49;0.80;99.90
42421;DHT22;28063;48.140;11.588;2023-03-04T05:02:14;0.80;99.90
42421;DHT22;28063;48.140;11.588;2023-03-04T05:04:40;0.80;99.90
42421;DHT22;28063;48.140;11.588;2023-03-04T05:07:06;0.70;99.90
42421;DHT22;28063;48.140;11.588;2023-03-04T05:09:31;0.70;99.90
42421;DHT22;28063;48.140;11.588;2023-03-04T05:11:57;0.70;99.90
42421;DHT22;28063;48.140;11.588;2023-03-04T05:14:22;0.70;99.90
42421;DHT22;28063;48.140;11.588;2023-03-04T05:16:49;0.70;99.90
42421;DHT22;28063;48.140;11.588;2023-03-04T05:19:17;0.70;99.90
42421;DHT22;28063;48.140;11.588;2023-03-04T05:21:43;0.60;99.90
42421;DHT22;28063;48.140;11.588;2023-03-04T05:24:09;0.60;99.90
42421;DHT22;28063;48.140;11.588;2023-03-04T05:26:34;0.60;99.90
42421;DHT22;28063;48.140;11.588;2023-03-04T05:29:00;0.50;99.90
42421;DHT22;28063;48.140;11.588;2023-03-04T05:31:26;0.50;99.90
42421;DHT22;28063;48.140;11.588;2023-03-04T05:33:51;0.50;99.90
42421;DHT22;28063;48.140;11.588;2023-03-04T05:36:17;0.50;99.90
42421;DHT22;28063;48.140;11.588;2023-03-04T05:38:43;0.50;99.90
42421;DHT22;28063;48.140;11.588;2023-03-04T05:41:08;0.50;99.90
42421;DHT22;28063;48.140;11.588;2023-03-04T05:43:35;0.50;99.90
42421;DHT22;28063;48.140;11.588;2023-03-04T05:46:02;0.50;99.90
42421;DHT22;28063;48.140;11.588;2023-03-04T05:48:28;0.40;99.90
42421;DHT22;28063;48.140;11.588;2023-03-04T05:50:59;0.40;99.90
42421;DHT22;28063;48.140;11.588;2023-03-04T05:53:26;0.40;99.90
42421;DHT22;28063;48.140;11.588;2023-03-04T05:55:52;0.40;99.90
42421;DHT22;28063;48.140;11.588;2023-03-04T05:58:18;0.40;99.90
42421;DHT22;28063;48.140;11.588;2023-03-04T06:00:44;0.50;99.90
42421;DHT22;28063;48.140;11.588;2023-03-04T06:03:14;0.50;99.90
42421;DHT22;28063;48.140;11.588;2023-03-04T06:05:41;0.50;99.90
42421;DHT22;28063;48.140;11.588;2023-03-04T06:08:07;0.60;99.90
42421;DHT22;28063;48.140;11.588;2023-03-04T06:10:32;0.60;99.90
42421;DHT22;28063;48.140;11.588;2023-03-04T06:12:58;0.70;99.90
42421;DHT22;28063;48.140;11.588;2023-03-04T06:15:24;0.70;99.90
42421;DHT22;28063;48.140;11.588;2023-03-04T06:17:49;0.80;99.90
42421;DHT22;28063;48.140;11.588;2023-03-04T06:20:15;0.90;99.90
42421;DHT22;28063;48.140;11.588;2023-03-04T06:22:41;0.90;99.90
42421;DHT22;28063;48.140;11.588;2023-03-04T06:25:07;1.00;99.90
42421;DHT22;28063;48.140;11.588;2023-03-04T06:27:32;1.00;99.90
42421;DHT22;28063;48.140;11.588;2023-03-04T06:29:58;1.00;99.90
42421;DHT22;28063;48.140;11.588;2023-03-04T06:32:24;1.10;99.90
42421;DHT22;28063;48.140;11.588;2023-03-04T06:34:50;1.10;99.90
42421;DHT22;28063;48.140;11.588;2023-03-04T06:37:15;1.20;99.90
42421;DHT22;28063;48.140;11.588;2023-03-04T06:39:41;1.20;99.90
42421;DHT22;28063;48.140;11.588;2023-03-04T06:42:06;1.30;99.90
42421;DHT22;28063;48.140;11.588;2023-03-04T06:44:32;1.30;99.90
42421;DHT22;28063;48.140;11.588;2023-03-04T06:46:58;1.40;99.90
42421;DHT22;28063;48.140;11.588;2023-03-04T06:49:23;1.50;99.90
42421;DHT22;28063;48.140;11.588;2023-03-04T06:51:49;1.50;99.90
42421;DHT22;28063;48.140;11.588;2023-03-04T06:54:14;1.60;99.90
42421;DHT22;28063;48.140;11.588;2023-03-04T06:56:40;1.70;99.90
42421;DHT22;28063;48.140;11.588;2023-03-04T06:59:06;1.80;99.90
42421;DHT22;28063;48.140;11.588;2023-03-04T07:01:32;1.80;99.90
42421;DHT22;28063;48.140;11.588;2023-03-04T07:03:59;1.90;99.90
42421;DHT22;28063;48.140;11.588;2023-03-04T07:06:28;2.00;99.90
42421;DHT22;28063;48.140;11.588;2023-03-04T07:08:54;2.10;99.90
42421;DHT22;28063;48.140;11.588;2023-03-04T07:11:20;2.20;99.90
42421;DHT22;28063;48.140;11.588;2023-03-04T07:13:47;2.30;99.90
42421;DHT22;28063;48.140;11.588;2023-03-04T07:16:16;2.40;99.90
42421;DHT22;28063;48.140;11.588;2023-03-04T07:18:43;2.50;99.90
42421;DHT22;28063;48.140;11.588;2023-03-04T07:21:09;2.50;99.90
42421;DHT22;28063;48.140;11.588;2023-03-04T07:23:35;2.60;99.90
42421;DHT22;28063;48.140;11.588;2023-03-04T07:26:01;2.70;99.90
42421;DHT22;28063;48.140;11.588;2023-03-04T07:28:26;2.80;99.90
42421;DHT22;28063;48.140;11.588;2023-03-04T07:30:52;2.80;99.90
42421;DHT22;28063;48.140;11.588;2023-03-04T07:33:18;2.90;99.90
42421;DHT22;28063;48.140;11.588;2023-03-04T07:35:43;3.00;99.90
42421;DHT22;28063;48.140;11.588;2023-03-04T07:38:09;3.10;99.90
42421;DHT22;28063;48.140;11.588;2023-03-04T07:40:35;3.20;99.90
42421;DHT22;28063;48.140;11.588;2023-03-04T07:43:01;3.20;99.90
42421;DHT22;28063;48.140;11.588;2023-03-04T07:45:26;3.20;99.90
42421;DHT22;28063;48.140;11.588;2023-03-04T07:47:53;3.30;99.90
42421;DHT22;28063;48.140;11.588;2023-03-04T07:50:19;3.40;99.90
42421;DHT22;28063;48.140;11.588;2023-03-04T07:52:47;3.50;99.90
42421;DHT22;28063;48.140;11.588;2023-03-04T07:55:15;3.60;99.90
42421;DHT22;28063;48.140;11.588;2023-03-04T07:57:44;3.70;99.90
42421;DHT22;28063;48.140;11.588;2023-03-04T08:00:14;3.70;99.80
42421;DHT22;28063;48.140;11.588;2023-03-04T08:02:40;3.70;99.70
42421;DHT22;28063;48.140;11.588;2023-03-04T08:05:06;3.90;99.80
42421;DHT22;28063;48.140;11.588;2023-03-04T08:07:32;3.90;99.10
42421;DHT22;28063;48.140;11.588;2023-03-04T08:09:58;4.00;98.20
42421;DHT22;28063;48.140;11.588;2023-03-04T08:12:24;3.90;97.50
42421;DHT22;28063;48.140;11.588;2023-03-04T08:14:51;3.90;97.50
42421;DHT22;28063;48.140;11.588;2023-03-04T08:17:17;3.90;97.60
42421;DHT22;28063;48.140;11.588;2023-03-04T08:19:42;3.90;97.30
42421;DHT22;28063;48.140;11.588;2023-03-04T08:22:08;4.00;97.20
42421;DHT22;28063;48.140;11.588;2023-03-04T08:24:34;4.00;96.90
42421;DHT22;28063;48.140;11.588;2023-03-04T08:27:00;4.20;97.30
42421;DHT22;28063;48.140;11.588;2023-03-04T08:29:25;4.30;96.80
42421;DHT22;28063;48.140;11.588;2023-03-04T08:31:53;4.40;96.50
42421;DHT22;28063;48.140;11.588;2023-03-04T08:34:21;4.40;96.30
42421;DHT22;28063;48.140;11.588;2023-03-04T08:36:47;4.50;96.40
42421;DHT22;28063;48.140;11.588;2023-03-04T08:39:14;4.60;95.90
42421;DHT22;28063;48.140;11.588;2023-03-04T08:41:40;4.70;95.40
42421;DHT22;28063;48.140;11.588;2023-03-04T08:44:06;4.80;95.10
42421;DHT22;28063;48.140;11.588;2023-03-04T08:46:36;4.90;94.60
42421;DHT22;28063;48.140;11.588;2023-03-04T08:49:03;5.00;94.10
42421;DHT22;28063;48.140;11.588;2023-03-04T08:51:29;5.00;94.10
42421;DHT22;28063;48.140;11.588;2023-03-04T08:53:55;5.00;93.70
42421;DHT22;28063;48.140;11.588;2023-03-04T08:56:20;5.10;93.80
42421;DHT22;28063;48.140;11.588;2023-03-04T08:58:46;5.30;93.40
42421;DHT22;28063;48.140;11.588;2023-03-04T09:01:13;5.40;93.20
42421;DHT22;28063;48.140;11.588;2023-03-04T09:03:39;5.50;93.40
42421;DHT22;28063;48.140;11.588;2023-03-04T09:06:06;5.70;92.60
42421;DHT22;28063;48.140;11.588;2023-03-04T09:08:33;5.80;92.10
42421;DHT22;28063;48.140;11.588;2023-03-04T09:10:59;5.90;91.70
42421;DHT22;28063;48.140;11.588;2023-03-04T09:13:28;6.00;91.30
42421;DHT22;28063;48.140;11.588;2023-03-04T09:15:54;6.20;91.60
42421;DHT22;28063;48.140;11.588;2023-03-04T09:18:21;6.40;91.10
42421;DHT22;28063;48.140;11.588;2023-03-04T09:20:48;6.60;90.50
42421;DHT22;28063;48.140;11.588;2023-03-04T09:23:14;6.80;89.70
42421;DHT22;28063;48.140;11.588;2023-03-04T09:25:41;6.80;88.60
42421;DHT22;28063;48.140;11.588;2023-03-04T09:28:07;6.90;87.60
42421;DHT22;28063;48.140;11.588;2023-03-04T09:30:33;6.90;85.40
42421;DHT22;28063;48.140;11.588;2023-03-04T09:32:59;6.90;83.90
42421;DHT22;28063;48.140;11.588;2023-03-04T09:35:25;6.80;84.00
42421;DHT22;28063;48.140;11.588;2023-03-04T09:37:51;6.80;82.30
42421;DHT22;28063;48.140;11.588;2023-03-04T09:40:22;6.70;83.00
42421;DHT22;28063;48.140;11.588;2023-03-04T09:42:55;6.80;81.50
42421;DHT22;28063;48.140;11.588;2023-03-04T09:45:28;6.80;81.90
42421;DHT22;28063;48.140;11.588;2023-03-04T09:47:59;6.90;82.00
42421;DHT22;28063;48.140;11.588;2023-03-04T09:50:25;6.90;81.30
42421;DHT22;28063;48.140;11.588;2023-03-04T09:55:40;7.10;81.50
42421;DHT22;28063;48.140;11.588;2023-03-04T10:00:46;7.30;81.50
42421;DHT22;28063;48.140;11.588;2023-03-04T10:03:20;7.50;81.20
42421;DHT22;28063;48.140;11.588;2023-03-04T10:06:05;7.70;80.70
42421;DHT22;28063;48.140;11.588;2023-03-04T10:16:06;8.00;77.40
42421;DHT22;28063;48.140;11.588;2023-03-04T10:18:42;8.00;78.10
42421;DHT22;28063;48.140;11.588;2023-03-04T10:21:22;8.10;78.40
42421;DHT22;28063;48.140;11.588;2023-03-04T10:23:50;8.40;76.50
42421;DHT22;28063;48.140;11.588;2023-03-04T10:26:20;8.40;75.80
42421;DHT22;28063;48.140;11.588;2023-03-04T10:28:48;8.30;75.60
42421;DHT22;28063;48.140;11.588;2023-03-04T10:31:21;8.30;76.60
42421;DHT22;28063;48.140;11.588;2023-03-04T10:33:53;8.30;75.80
42421;DHT22;28063;48.140;11.588;2023-03-04T10:39:06;8.40;74.50
42421;DHT22;28063;48.140;11.588;2023-03-04T10:41:33;8.40;74.70
42421;DHT22;28063;48.140;11.588;2023-03-04T10:46:28;8.50;73.50
42421;DHT22;28063;48.140;11.588;2023-03-04T10:48:54;8.50;73.30
42421;DHT22;28063;48.140;11.588;2023-03-04T10:51:25;8.60;73.40
42421;DHT22;28063;48.140;11.588;2023-03-04T10:54:09;8.60;71.90
42421;DHT22;28063;48.140;11.588;2023-03-04T10:57:37;8.50;72.50
42421;DHT22;28063;48.140;11.588;2023-03-04T10:59:56;8.60;71.40
42421;DHT22;28063;48.140;11.588;2023-03-04T11:02:34;8.60;70.90
42421;DHT22;28063;48.140;11.588;2023-03-04T11:10:38;8.60;69.40
42421;DHT22;28063;48.140;11.588;2023-03-04T11:15:59;8.40;71.40
42421;DHT22;28063;48.140;11.588;2023-03-04T11:18:47;8.50;70.80
42421;DHT22;28063;48.140;11.588;2023-03-04T11:21:24;8.40;70.90
42421;DHT22;28063;48.140;11.588;2023-03-04T11:26:42;8.40;71.00
42421;DHT22;28063;48.140;11.588;2023-03-04T11:29:17;8.40;72.00
42421;DHT22;28063;48.140;11.588;2023-03-04T11:32:13;8.50;71.40
42421;DHT22;28063;48.140;11.588;2023-03-04T11:34:49;8.70;71.70
42421;DHT22;28063;48.140;11.588;2023-03-04T11:40:48;9.10;71.60
42421;DHT22;28063;48.140;11.588;2023-03-04T11:42:58;9.20;69.80
42421;DHT22;28063;48.140;11.588;2023-03-04T11:45:41;9.30;69.00
42421;DHT22;28063;48.140;11.588;2023-03-04T11:48:25;9.20;68.90
42421;DHT22;28063;48.140;11.588;2023-03-04T11:51:08;9.20;70.10
42421;DHT22;28063;48.140;11.588;2023-03-04T11:56:40;9.30;69.90
42421;DHT22;28063;48.140;11.588;2023-03-04T12:04:37;9.40;68.40
42421;DHT22;28063;48.140;11.588;2023-03-04T12:08:02;9.30;68.20
42421;DHT22;28063;48.140;11.588;2023-03-04T12:10:23;9.30;69.10
42421;DHT22;28063;48.140;11.588;2023-03-04T12:18:27;9.40;69.10
42421;DHT22;28063;48.140;11.588;2023-03-04T12:23:56;9.60;67.80
42421;DHT22;28063;48.140;11.588;2023-03-04T12:40:20;8.70;69.70
42421;DHT22;28063;48.140;11.588;2023-03-04T12:43:15;8.40;70.50
42421;DHT22;28063;48.140;11.588;2023-03-04T12:45:53;8.30;71.90
42421;DHT22;28063;48.140;11.588;2023-03-04T12:48:36;8.30;71.10
42421;DHT22;28063;48.140;11.588;2023-03-04T12:56:25;8.60;70.60
42421;DHT22;28063;48.140;11.588;2023-03-04T12:58:53;8.70;70.60
42421;DHT22;28063;48.140;11.588;2023-03-04T13:01:43;8.80;70.40
42421;DHT22;28063;48.140;11.588;2023-03-04T13:04:14;8.70;70.20
42421;DHT22;28063;48.140;11.588;2023-03-04T13:09:49;8.80;70.10
42421;DHT22;28063;48.140;11.588;2023-03-04T13:12:19;8.30;71.60
42421;DHT22;28063;48.140;11.588;2023-03-04T13:17:52;8.20;72.80
42421;DHT22;28063;48.140;11.588;2023-03-04T13:23:23;8.30;72.90
42421;DHT22;28063;48.140;11.588;2023-03-04T13:28:20;8.40;74.10
42421;DHT22;28063;48.140;11.588;2023-03-04T13:41:21;8.30;73.10
42421;DHT22;28063;48.140;11.588;2023-03-04T13:43:54;8.40;73.40
42421;DHT22;28063;48.140;11.588;2023-03-04T13:51:36;8.40;73.80
42421;DHT22;28063;48.140;11.588;2023-03-04T13:54:29;8.50;72.50
42421;DHT22;28063;48.140;11.588;2023-03-04T13:57:18;8.70;72.80
42421;DHT22;28063;48.140;11.588;2023-03-04T13:59:53;8.60;72.00
42421;DHT22;28063;48.140;11.588;2023-03-04T14:02:22;8.50;72.60
42421;DHT22;28063;48.140;11.588;2023-03-04T14:10:06;8.20;73.10
42421;DHT22;28063;48.140;11.588;2023-03-04T14:17:34;8.10;73.60
42421;DHT22;28063;48.140;11.588;2023-03-04T14:20:20;8.00;73.80
42421;DHT22;28063;48.140;11.588;2023-03-04T14:22:47;7.80;74.40
42421;DHT22;28063;48.140;11.588;2023-03-04T14:27:39;7.70;74.90
42421;DHT22;28063;48.140;11.588;2023-03-04T14:30:27;7.50;75.30
42421;DHT22;28063;48.140;11.588;2023-03-04T14:32:53;7.40;75.50
42421;DHT22;28063;48.140;11.588;2023-03-04T14:35:28;7.30;75.40
42421;DHT22;28063;48.140;11.588;2023-03-04T14:38:06;7.10;76.40
42421;DHT22;28063;48.140;11.588;2023-03-04T14:40:40;7.10;76.30
42421;DHT22;28063;48.140;11.588;2023-03-04T14:43:13;7.10;76.40
42421;DHT22;28063;48.140;11.588;2023-03-04T14:45:41;7.00;76.70
42421;DHT22;28063;48.140;11.588;2023-03-04T14:48:10;7.10;75.90
42421;DHT22;28063;48.140;11.588;2023-03-04T14:50:47;7.00;75.50
42421;DHT22;28063;48.140;11.588;2023-03-04T14:53:16;6.90;76.30
42421;DHT22;28063;48.140;11.588;2023-03-04T14:56:03;6.80;76.80
42421;DHT22;28063;48.140;11.588;2023-03-04T14:58:31;6.60;77.30
42421;DHT22;28063;48.140;11.588;2023-03-04T15:03:29;6.50;77.40
42421;DHT22;28063;48.140;11.588;2023-03-04T15:06:18;6.40;77.10
42421;DHT22;28063;48.140;11.588;2023-03-04T15:08:45;6.30;77.20
42421;DHT22;28063;48.140;11.588;2023-03-04T15:11:26;6.10;77.60
42421;DHT22;28063;48.140;11.588;2023-03-04T15:13:55;5.90;78.00
42421;DHT22;28063;48.140;11.588;2023-03-04T15:16:23;5.80;78.60
42421;DHT22;28063;48.140;11.588;2023-03-04T15:18:55;5.70;79.50
42421;DHT22;28063;48.140;11.588;2023-03-04T15:23:49;5.70;78.70
42421;DHT22;28063;48.140;11.588;2023-03-04T15:26:15;5.60;79.00
42421;DHT22;28063;48.140;11.588;2023-03-04T15:28:41;5.40;79.80
42421;DHT22;28063;48.140;11.588;2023-03-04T15:31:16;5.30;80.60
42421;DHT22;28063;48.140;11.588;2023-03-04T15:33:42;5.10;80.50
42421;DHT22;28063;48.140;11.588;2023-03-04T15:36:12;4.80;81.40
42421;DHT22;28063;48.140;11.588;2023-03-04T15:38:40;4.70;82.30
42421;DHT22;28063;48.140;11.588;2023-03-04T15:41:10;4.50;82.40
42421;DHT22;28063;48.140;11.588;2023-03-04T15:43:36;4.40;82.90
42421;DHT22;28063;48.140;11.588;2023-03-04T15:46:02;4.40;83.20
42421;DHT22;28063;48.140;11.588;2023-03-04T15:48:28;4.30;83.30
42421;DHT22;28063;48.140;11.588;2023-03-04T15:50:58;4.10;83.70
42421;DHT22;28063;48.140;11.588;2023-03-04T15:53:32;4.00;84.90
42421;DHT22;28063;48.140;11.588;2023-03-04T15:56:01;3.90;85.00
42421;DHT22;28063;48.140;11.588;2023-03-04T15:58:28;3.90;85.40
42421;DHT22;28063;48.140;11.588;2023-03-04T16:00:53;3.90;85.70
42421;DHT22;28063;48.140;11.588;2023-03-04T16:03:20;3.90;85.90
42421;DHT22;28063;48.140;11.588;2023-03-04T16:05:48;3.80;85.90
42421;DHT22;28063;48.140;11.588;2023-03-04T16:08:18;3.80;86.30
42421;DHT22;28063;48.140;11.588;2023-03-04T16:10:44;3.70;86.40
42421;DHT22;28063;48.140;11.588;2023-03-04T16:13:15;3.70;86.20
42421;DHT22;28063;48.140;11.588;2023-03-04T16:15:41;3.70;86.10
42421;DHT22;28063;48.140;11.588;2023-03-04T16:18:09;3.50;86.70
42421;DHT22;28063;48.140;11.588;2023-03-04T16:20:36;3.50;86.10
42421;DHT22;28063;48.140;11.588;2023-03-04T16:23:02;3.30;86.60
42421;DHT22;28063;48.140;11.588;2023-03-04T16:25:29;3.20;86.80
42421;DHT22;28063;48.140;11.588;2023-03-04T16:27:56;3.10;88.00
42421;DHT22;28063;48.140;11.588;2023-03-04T16:30:25;3.00;88.50
42421;DHT22;28063;48.140;11.588;2023-03-04T16:32:51;3.00;88.30
42421;DHT22;28063;48.140;11.588;2023-03-04T16:35:18;2.80;88.60
42421;DHT22;28063;48.140;11.588;2023-03-04T16:37:44;2.70;89.40
42421;DHT22;28063;48.140;11.588;2023-03-04T16:40:16;2.70;90.00
42421;DHT22;28063;48.140;11.588;2023-03-04T16:42:43;2.60;90.10
42421;DHT22;28063;48.140;11.588;2023-03-04T16:45:21;2.60;90.10
42421;DHT22;28063;48.140;11.588;2023-03-04T16:47:47;2.50;90.20
42421;DHT22;28063;48.140;11.588;2023-03-04T16:50:18;2.40;90.30
42421;DHT22;28063;48.140;11.588;2023-03-04T16:52:46;2.30;90.30
42421;DHT22;28063;48.140;11.588;2023-03-04T16:55:20;2.30;90.40
42421;DHT22;28063;48.140;11.588;2023-03-04T16:57:47;2.20;90.50
42421;DHT22;28063;48.140;11.588;2023-03-04T17:00:14;2.20;90.70
42421;DHT22;28063;48.140;11.588;2023-03-04T17:02:42;2.10;90.50
42421;DHT22;28063;48.140;11.588;2023-03-04T17:05:14;2.10;90.60
42421;DHT22;28063;48.140;11.588;2023-03-04T17:07:40;2.10;90.70
42421;DHT22;28063;48.140;11.588;2023-03-04T17:10:06;2.10;90.70
42421;DHT22;28063;48.140;11.588;2023-03-04T17:12:32;2.00;90.60
42421;DHT22;28063;48.140;11.588;2023-03-04T17:14:58;2.00;90.70
42421;DHT22;28063;48.140;11.588;2023-03-04T17:17:29;2.00;90.80
42421;DHT22;28063;48.140;11.588;2023-03-04T17:19:55;1.90;90.70
42421;DHT22;28063;48.140;11.588;2023-03-04T17:22:20;1.90;90.30
42421;DHT22;28063;48.140;11.588;2023-03-04T17:24:47;1.90;90.50
42421;DHT22;28063;48.140;11.588;2023-03-04T17:27:12;1.90;90.80
42421;DHT22;28063;48.140;11.588;2023-03-04T17:29:38;1.80;90.70
42421;DHT22;28063;48.140;11.588;2023-03-04T17:32:04;1.80;90.80
42421;DHT22;28063;48.140;11.588;2023-03-04T17:34:30;1.70;90.70
42421;DHT22;28063;48.140;11.588;2023-03-04T17:36:56;1.70;90.80
42421;DHT22;28063;48.140;11.588;2023-03-04T17:39:22;1.70;91.00